Time;durP1;ratioP1;P1;durP2;ratioP2;P2;SDS_P1;SDS_P2;PMS_P1;PMS_P2;Temp;Humidity;BMP_temperature;BMP_pressure;BME280_temperature;BME280_humidity;BME280_pressure;Samples;Min_cycle;Max_cycle;Signal;HPM_P1;HPM_P2
2022/02/16 00:02:23;;;;;;;6.38;5.53;;;;;;;;;;5073216;28;20692;-70
2022/02/16 00:04:51;;;;;;;4.93;4.60;;;;;;;;;;5073708;28;20202;-70
2022/02/16 00:07:19;;;;;;;6.55;5.95;;;;;;;;;;5073137;28;20197;-69
2022/02/16 00:09:46;;;;;;;7.80;5.70;;;;;;;;;;5073748;28;20231;-69
2022/02/16 00:12:14;;;;;;;6.57;5.93;;;;;;;;;;5073485;28;20198;-69
2022/02/16 00:14:41;;;;;;;6.53;5.97;;;;;;;;;;5073972;28;20285;-70
2022/02/16 00:17:08;;;;;;;6.93;6.32;;;;;;;;;;5073668;28;20254;-70
2022/02/16 00:19:35;;;;;;;6.80;6.10;;;;;;;;;;5074053;28;20702;-70
2022/02/16 00:22:05;;;;;;;6.57;6.03;;;;;;;;;;5073412;28;20242;-69
2022/02/16 00:24:34;;;;;;;7.63;6.90;;;;;;;;;;5073270;28;20727;-70
2022/02/16 00:27:01;;;;;;;6.30;5.80;;;;;;;;;;5073383;28;20610;-71
2022/02/16 00:29:28;;;;;;;5.93;5.47;;;;;;;;;;5072958;28;20288;-70
2022/02/16 00:31:56;;;;;;;9.43;6.45;;;;;;;;;;5072961;28;20299;-70
2022/02/16 00:34:23;;;;;;;7.25;6.40;;;;;;;;;;5073327;28;20624;-71
2022/02/16 00:36:50;;;;;;;7.03;6.13;;;;;;;;;;5073522;28;20203;-70
2022/02/16 00:39:19;;;;;;;6.90;6.30;;;;;;;;;;5073097;28;20304;-70
2022/02/16 00:41:46;;;;;;;6.55;6.05;;;;;;;;;;5073370;28;20194;-71
2022/02/16 00:44:14;;;;;;;6.32;5.20;;;;;;;;;;5073563;28;20225;-70
2022/02/16 00:46:41;;;;;;;6.85;5.80;;;;;;;;;;5073863;28;20647;-70
2022/02/16 00:49:08;;;;;;;5.80;5.30;;;;;;;;;;5073086;28;20566;-70
2022/02/16 00:51:35;;;;;;;7.07;6.40;;;;;;;;;;5073772;28;20799;-70
2022/02/16 00:54:02;;;;;;;6.38;5.85;;;;;;;;;;5072664;28;20240;-70
2022/02/16 00:56:31;;;;;;;7.10;6.40;;;;;;;;;;5072644;28;20233;-70
2022/02/16 00:58:58;;;;;;;7.35;6.75;;;;;;;;;;5073007;28;20645;-70
2022/02/16 01:01:26;;;;;;;8.05;7.35;;;;;;;;;;5072867;28;20642;-70
2022/02/16 01:03:53;;;;;;;7.70;7.00;;;;;;;;;;5073078;28;20682;-69
2022/02/16 01:06:20;;;;;;;8.15;6.93;;;;;;;;;;5072914;28;20284;-70
2022/02/16 01:08:47;;;;;;;9.20;7.68;;;;;;;;;;5074584;28;20240;-70
2022/02/16 01:11:15;;;;;;;8.75;7.70;;;;;;;;;;5076427;28;20274;-70
2022/02/16 01:13:43;;;;;;;8.30;7.60;;;;;;;;;;5076147;28;20560;-70
2022/02/16 01:16:10;;;;;;;9.13;8.25;;;;;;;;;;5076125;28;20226;-71
2022/02/16 01:18:38;;;;;;;9.25;7.90;;;;;;;;;;5076313;28;20310;-70
2022/02/16 01:21:05;;;;;;;8.88;8.07;;;;;;;;;;5076305;28;20201;-71
2022/02/16 01:23:32;;;;;;;9.50;8.15;;;;;;;;;;5076386;28;20316;-70
2022/02/16 01:25:59;;;;;;;8.40;7.60;;;;;;;;;;5076017;28;20230;-71
2022/02/16 01:28:27;;;;;;;9.82;8.32;;;;;;;;;;5075900;28;20244;-70
2022/02/16 01:30:55;;;;;;;8.10;7.30;;;;;;;;;;5076249;28;20563;-70
2022/02/16 01:33:22;;;;;;;9.20;8.23;;;;;;;;;;5076043;28;20205;-70
2022/02/16 01:35:49;;;;;;;9.43;8.43;;;;;;;;;;5075778;28;20224;-69
2022/02/16 01:38:17;;;;;;;10.43;8.75;;;;;;;;;;5075569;28;20312;-69
2022/02/16 01:40:44;;;;;;;8.90;8.00;;;;;;;;;;5076414;28;20603;-69
2022/02/16 01:43:11;;;;;;;10.70;9.60;;;;;;;;;;5075697;28;20194;-70
2022/02/16 01:45:41;;;;;;;9.82;8.95;;;;;;;;;;5076358;28;20561;-70
2022/02/16 01:48:10;;;;;;;9.98;8.15;;;;;;;;;;5076444;28;20209;-69
2022/02/16 01:50:37;;;;;;;13.55;9.70;;;;;;;;;;5075460;28;20228;-70
2022/02/16 01:53:05;;;;;;;9.90;9.00;;;;;;;;;;5075922;28;20196;-70
2022/02/16 01:55:33;;;;;;;9.80;8.85;;;;;;;;;;5075471;28;20199;-69
2022/02/16 01:58:01;;;;;;;9.27;8.45;;;;;;;;;;5075419;28;20301;-71
2022/02/16 02:00:28;;;;;;;10.85;9.75;;;;;;;;;;5075575;28;20204;-69
2022/02/16 02:02:55;;;;;;;10.82;9.82;;;;;;;;;;5075556;28;20349;-70
2022/02/16 02:05:24;;;;;;;10.25;8.48;;;;;;;;;;5075924;28;20233;-71
2022/02/16 02:07:51;;;;;;;9.80;8.80;;;;;;;;;;5075399;28;20207;-70
2022/02/16 02:10:18;;;;;;;9.52;8.18;;;;;;;;;;5076239;28;20228;-70
2022/02/16 02:12:46;;;;;;;10.00;9.05;;;;;;;;;;5075711;28;20190;-70
2022/02/16 02:15:13;;;;;;;9.32;7.85;;;;;;;;;;5075899;28;20551;-70
2022/02/16 02:17:41;;;;;;;9.73;8.82;;;;;;;;;;5075251;28;20310;-70
2022/02/16 02:20:20;;;;;;;8.23;7.22;;;;;;;;;;5074747;28;20195;-70
2022/02/16 02:22:47;;;;;;;11.88;8.48;;;;;;;;;;5075303;28;20585;-69
2022/02/16 02:25:15;;;;;;;9.90;8.95;;;;;;;;;;5075775;28;20581;-69
2022/02/16 02:27:42;;;;;;;8.63;7.82;;;;;;;;;;5075191;28;20200;-70
2022/02/16 02:30:10;;;;;;;8.60;7.80;;;;;;;;;;5075084;28;20220;-69
2022/02/16 02:32:37;;;;;;;10.15;8.57;;;;;;;;;;5074651;28;20222;-69
2022/02/16 02:35:06;;;;;;;8.43;7.57;;;;;;;;;;5075364;28;20260;-69
2022/02/16 02:37:37;;;;;;;8.80;7.80;;;;;;;;;;5075027;28;20288;-70
2022/02/16 02:40:05;;;;;;;9.32;8.38;;;;;;;;;;5075643;28;20239;-69
2022/02/16 02:42:32;;;;;;;9.75;8.20;;;;;;;;;;5075413;28;20287;-69
2022/02/16 02:45:00;;;;;;;8.00;7.20;;;;;;;;;;5074725;28;20237;-69
2022/02/16 02:47:27;;;;;;;8.10;7.35;;;;;;;;;;5075059;28;20193;-70
2022/02/16 02:49:54;;;;;;;7.95;7.25;;;;;;;;;;5074754;28;20198;-69
2022/02/16 02:52:21;;;;;;;7.75;7.00;;;;;;;;;;5074669;28;20252;-69
2022/02/16 02:54:50;;;;;;;10.77;7.93;;;;;;;;;;5075020;28;20580;-69
2022/02/16 02:57:17;;;;;;;8.30;7.45;;;;;;;;;;5074546;28;20229;-69
2022/02/16 02:59:45;;;;;;;8.68;7.88;;;;;;;;;;5074644;28;20551;-69
2022/02/16 03:02:12;;;;;;;8.63;7.70;;;;;;;;;;5074431;28;20190;-70
2022/02/16 03:04:39;;;;;;;8.65;7.85;;;;;;;;;;5074697;28;20591;-70
2022/02/16 03:07:06;;;;;;;8.68;7.82;;;;;;;;;;5074007;28;20289;-69
2022/02/16 03:09:34;;;;;;;8.52;7.65;;;;;;;;;;5074477;28;20235;-70
2022/02/16 03:12:02;;;;;;;7.85;7.15;;;;;;;;;;5074290;28;20287;-69
2022/02/16 03:14:30;;;;;;;9.10;8.30;;;;;;;;;;5074123;28;20291;-70
2022/02/16 03:16:57;;;;;;;9.70;8.80;;;;;;;;;;5073900;28;20201;-69
2022/02/16 03:19:24;;;;;;;9.50;8.60;;;;;;;;;;5074290;28;20216;-69
2022/02/16 03:21:51;;;;;;;8.98;8.18;;;;;;;;;;5074188;28;20243;-69
2022/02/16 03:24:19;;;;;;;8.40;7.70;;;;;;;;;;5074172;28;20264;-69
2022/02/16 03:26:46;;;;;;;11.07;9.15;;;;;;;;;;5074785;28;20199;-70
2022/02/16 03:29:15;;;;;;;9.73;8.32;;;;;;;;;;5073641;28;20291;-69
2022/02/16 03:31:42;;;;;;;9.98;7.90;;;;;;;;;;5073394;28;20231;-69
2022/02/16 03:34:11;;;;;;;9.45;8.55;;;;;;;;;;5074114;28;20193;-70
2022/02/16 03:36:38;;;;;;;9.20;8.30;;;;;;;;;;5074239;28;20566;-69
2022/02/16 03:39:06;;;;;;;10.38;9.38;;;;;;;;;;5074124;28;20634;-69
2022/02/16 03:41:33;;;;;;;9.77;8.77;;;;;;;;;;5074424;28;20201;-69
2022/02/16 03:44:01;;;;;;;10.07;9.07;;;;;;;;;;5074084;28;20196;-69
2022/02/16 03:46:29;;;;;;;11.73;9.57;;;;;;;;;;5073795;28;20201;-69
2022/02/16 03:48:56;;;;;;;8.98;8.07;;;;;;;;;;5073759;28;20686;-69
2022/02/16 03:51:24;;;;;;;10.18;9.15;;;;;;;;;;5073708;28;20283;-69
2022/02/16 03:53:51;;;;;;;10.13;9.13;;;;;;;;;;5073372;28;20291;-69
2022/02/16 03:56:18;;;;;;;9.98;8.98;;;;;;;;;;5073386;28;20201;-69
2022/02/16 03:58:46;;;;;;;9.35;8.35;;;;;;;;;;5073736;28;20213;-69
2022/02/16 04:01:13;;;;;;;12.45;9.23;;;;;;;;;;5073315;28;20215;-70
2022/02/16 04:03:42;;;;;;;10.93;9.82;;;;;;;;;;5073221;28;20233;-69
2022/02/16 04:06:09;;;;;;;9.38;8.40;;;;;;;;;;5073229;28;20193;-69
2022/02/16 04:08:36;;;;;;;10.57;9.48;;;;;;;;;;5073315;28;20292;-70
2022/02/16 04:11:03;;;;;;;10.50;9.43;;;;;;;;;;5073180;28;20651;-69
2022/02/16 04:13:31;;;;;;;9.80;8.90;;;;;;;;;;5073196;28;20198;-69
2022/02/16 04:15:58;;;;;;;10.77;9.68;;;;;;;;;;5073280;28;20228;-69
2022/02/16 04:18:25;;;;;;;10.73;9.13;;;;;;;;;;5073397;28;20217;-69
2022/02/16 04:20:54;;;;;;;9.75;8.77;;;;;;;;;;5073231;28;20242;-69
2022/02/16 04:23:21;;;;;;;10.45;9.35;;;;;;;;;;5073046;28;20237;-69
2022/02/16 04:25:48;;;;;;;10.75;9.73;;;;;;;;;;5073101;28;20192;-69
2022/02/16 04:28:16;;;;;;;10.43;9.43;;;;;;;;;;5073034;28;20198;-69
2022/02/16 04:30:43;;;;;;;10.13;9.13;;;;;;;;;;5072861;28;20654;-69
2022/02/16 04:33:10;;;;;;;11.85;9.63;;;;;;;;;;5073652;28;20198;-69
2022/02/16 04:35:37;;;;;;;9.00;8.10;;;;;;;;;;5073148;28;20201;-69
2022/02/16 04:38:06;;;;;;;10.40;9.38;;;;;;;;;;5072966;28;20198;-68
2022/02/16 04:40:33;;;;;;;9.55;8.63;;;;;;;;;;5073598;28;20193;-69
2022/02/16 04:43:03;;;;;;;10.88;8.38;;;;;;;;;;5072911;28;20229;-69
2022/02/16 04:45:31;;;;;;;10.23;9.23;;;;;;;;;;5077357;28;20186;-69
2022/02/16 04:47:59;;;;;;;8.95;8.10;;;;;;;;;;5076709;28;20194;-69
2022/02/16 04:50:26;;;;;;;9.48;8.48;;;;;;;;;;5076843;28;20194;-69
2022/02/16 04:52:55;;;;;;;9.95;8.95;;;;;;;;;;5076705;28;20284;-69
2022/02/16 04:55:24;;;;;;;9.43;8.52;;;;;;;;;;5076936;28;20300;-69
2022/02/16 04:57:51;;;;;;;9.07;8.15;;;;;;;;;;5077049;28;20288;-69
2022/02/16 05:00:19;;;;;;;9.50;8.50;;;;;;;;;;5076366;28;20249;-70
2022/02/16 05:02:46;;;;;;;8.60;7.70;;;;;;;;;;5076463;28;20193;-69
2022/02/16 05:05:14;;;;;;;9.10;8.20;;;;;;;;;;5076985;28;20242;-69
2022/02/16 05:07:41;;;;;;;9.50;8.60;;;;;;;;;;5076382;28;20190;-69
2022/02/16 05:10:09;;;;;;;8.75;7.90;;;;;;;;;;5076297;28;20205;-70
2022/02/16 05:12:38;;;;;;;9.10;8.20;;;;;;;;;;5076175;28;20656;-69
2022/02/16 05:15:06;;;;;;;9.10;8.20;;;;;;;;;;5076453;28;20551;-70
2022/02/16 05:17:34;;;;;;;8.63;7.82;;;;;;;;;;5076678;28;20215;-69
2022/02/16 05:20:01;;;;;;;8.85;7.85;;;;;;;;;;5076424;28;20267;-69
2022/02/16 05:22:28;;;;;;;9.25;8.35;;;;;;;;;;5076584;28;20291;-69
2022/02/16 05:24:55;;;;;;;8.52;7.65;;;;;;;;;;5076881;28;20272;-69
2022/02/16 05:27:23;;;;;;;9.82;8.93;;;;;;;;;;5076653;28;20229;-69
2022/02/16 05:29:51;;;;;;;8.18;7.38;;;;;;;;;;5077067;28;20229;-70
2022/02/16 05:32:19;;;;;;;8.10;7.40;;;;;;;;;;5077033;28;20338;-69
2022/02/16 05:34:46;;;;;;;7.55;6.95;;;;;;;;;;5077255;28;20252;-69
2022/02/16 05:37:13;;;;;;;8.50;7.70;;;;;;;;;;5076846;28;20281;-69
2022/02/16 05:39:40;;;;;;;7.22;6.53;;;;;;;;;;5076997;28;20405;-69
2022/02/16 05:42:08;;;;;;;8.13;7.20;;;;;;;;;;5076399;28;20189;-69
2022/02/16 05:44:35;;;;;;;7.43;6.72;;;;;;;;;;5076451;28;20194;-71
2022/02/16 05:47:04;;;;;;;8.70;7.90;;;;;;;;;;5076207;28;20571;-71
2022/02/16 05:49:32;;;;;;;8.00;7.30;;;;;;;;;;5076246;28;20681;-71
2022/02/16 05:51:59;;;;;;;7.22;6.63;;;;;;;;;;5075982;28;20205;-71
2022/02/16 05:54:26;;;;;;;6.38;5.82;;;;;;;;;;5077081;28;20197;-71
2022/02/16 05:56:53;;;;;;;8.30;7.50;;;;;;;;;;5076720;28;20539;-71
2022/02/16 05:59:21;;;;;;;7.03;6.32;;;;;;;;;;5076203;28;20252;-71
2022/02/16 06:01:48;;;;;;;7.88;7.18;;;;;;;;;;5075686;28;20204;-71
2022/02/16 06:04:17;;;;;;;7.22;6.63;;;;;;;;;;5075550;28;20201;-71
2022/02/16 06:06:44;;;;;;;7.40;6.35;;;;;;;;;;5076109;28;20201;-73
2022/02/16 06:09:12;;;;;;;7.20;6.60;;;;;;;;;;5075537;28;20244;-70
2022/02/16 06:11:39;;;;;;;7.00;6.40;;;;;;;;;;5075140;28;20198;-70
2022/02/16 06:14:07;;;;;;;5.82;5.32;;;;;;;;;;5075658;28;20639;-70
2022/02/16 06:16:35;;;;;;;7.00;6.40;;;;;;;;;;5076222;28;20194;-71
2022/02/16 06:19:02;;;;;;;6.90;6.25;;;;;;;;;;5075770;28;20218;-70
2022/02/16 06:21:31;;;;;;;6.07;5.45;;;;;;;;;;5075239;28;20195;-70
2022/02/16 06:23:58;;;;;;;6.57;5.97;;;;;;;;;;5075708;28;20256;-71
2022/02/16 06:26:25;;;;;;;5.78;5.18;;;;;;;;;;5075041;28;20280;-71
2022/02/16 06:28:53;;;;;;;7.13;6.53;;;;;;;;;;5075368;28;20195;-72
2022/02/16 06:31:20;;;;;;;6.65;6.05;;;;;;;;;;5075027;28;20193;-71
2022/02/16 06:33:47;;;;;;;6.25;5.20;;;;;;;;;;5075172;28;20287;-71
2022/02/16 06:36:14;;;;;;;5.15;4.75;;;;;;;;;;5074671;28;20240;-70
2022/02/16 06:38:43;;;;;;;5.65;4.85;;;;;;;;;;5074862;28;20299;-71
2022/02/16 06:41:10;;;;;;;6.75;5.70;;;;;;;;;;5074973;28;20232;-71
2022/02/16 06:43:37;;;;;;;6.75;6.25;;;;;;;;;;5075386;28;20194;-71
2022/02/16 06:46:05;;;;;;;6.13;5.60;;;;;;;;;;5074626;28;20656;-71
2022/02/16 06:48:32;;;;;;;6.90;6.22;;;;;;;;;;5074440;28;20294;-71
2022/02/16 06:50:59;;;;;;;6.15;5.65;;;;;;;;;;5074786;28;20197;-71
2022/02/16 06:53:27;;;;;;;6.78;5.07;;;;;;;;;;5074767;28;20198;-71
2022/02/16 06:55:55;;;;;;;5.00;4.60;;;;;;;;;;5074883;28;20204;-70
2022/02/16 06:58:23;;;;;;;5.00;4.60;;;;;;;;;;5074154;28;20243;-70
2022/02/16 07:00:50;;;;;;;5.40;4.90;;;;;;;;;;5074294;28;20225;-71
2022/02/16 07:03:18;;;;;;;5.38;4.88;;;;;;;;;;5074067;28;20245;-71
2022/02/16 07:05:45;;;;;;;4.88;4.47;;;;;;;;;;5074239;28;20216;-71
2022/02/16 07:08:12;;;;;;;8.40;5.85;;;;;;;;;;5073847;28;20196;-71
2022/02/16 07:10:39;;;;;;;7.68;5.70;;;;;;;;;;5074371;28;20624;-71
2022/02/16 07:13:08;;;;;;;6.00;5.43;;;;;;;;;;5074098;28;20230;-71
2022/02/16 07:15:35;;;;;;;7.57;5.25;;;;;;;;;;5074595;28;20237;-71
2022/02/16 07:18:02;;;;;;;6.78;4.85;;;;;;;;;;5074532;28;20531;-70
2022/02/16 07:20:30;;;;;;;5.00;4.43;;;;;;;;;;5073819;28;20347;-71
2022/02/16 07:22:57;;;;;;;5.05;4.55;;;;;;;;;;5074016;28;20193;-70
2022/02/16 07:25:27;;;;;;;4.50;4.20;;;;;;;;;;5073942;28;20650;-70
2022/02/16 07:27:54;;;;;;;7.55;3.95;;;;;;;;;;5073756;28;20255;-71
2022/02/16 07:30:23;;;;;;;3.70;3.40;;;;;;;;;;5074000;28;20232;-70
2022/02/16 07:32:50;;;;;;;3.95;3.60;;;;;;;;;;5074102;28;20201;-70
2022/02/16 07:35:17;;;;;;;5.22;4.13;;;;;;;;;;5073512;28;20202;-71
2022/02/16 07:37:45;;;;;;;3.40;3.17;;;;;;;;;;5073898;28;20194;-71
2022/02/16 07:40:12;;;;;;;3.22;3.03;;;;;;;;;;5073554;28;20701;-70
2022/02/16 07:42:39;;;;;;;4.70;2.80;;;;;;;;;;5073874;28;20229;-70
2022/02/16 07:45:07;;;;;;;3.60;3.30;;;;;;;;;;5073499;28;20289;-70
2022/02/16 07:47:36;;;;;;;3.22;2.92;;;;;;;;;;5073954;28;20198;-70
2022/02/16 07:50:03;;;;;;;2.90;2.70;;;;;;;;;;5073408;28;20230;-70
2022/02/16 07:52:31;;;;;;;3.22;3.00;;;;;;;;;;5073759;28;20284;-71
2022/02/16 07:54:59;;;;;;;2.75;2.55;;;;;;;;;;5073399;28;20236;-71
2022/02/16 07:57:26;;;;;;;3.03;2.70;;;;;;;;;;5073409;28;20648;-70
2022/02/16 07:59:55;;;;;;;2.63;2.42;;;;;;;;;;5073891;28;20217;-71
2022/02/16 08:02:22;;;;;;;3.15;2.95;;;;;;;;;;5073330;28;20194;-71
2022/02/16 08:04:51;;;;;;;3.00;2.80;;;;;;;;;;5073393;28;20226;-71
2022/02/16 08:07:18;;;;;;;3.28;2.88;;;;;;;;;;5073644;28;20591;-70
2022/02/16 08:09:45;;;;;;;2.92;2.72;;;;;;;;;;5073242;28;20226;-70
2022/02/16 08:12:13;;;;;;;3.22;3.03;;;;;;;;;;5073227;28;20198;-70
2022/02/16 08:14:40;;;;;;;3.17;2.83;;;;;;;;;;5073796;28;20201;-70
2022/02/16 08:17:08;;;;;;;3.20;2.80;;;;;;;;;;5073510;28;20527;-70
2022/02/16 08:19:36;;;;;;;4.25;3.60;;;;;;;;;;5076031;28;20681;-70
2022/02/16 08:22:05;;;;;;;3.10;2.90;;;;;;;;;;5077225;28;20198;-70
2022/02/16 08:24:32;;;;;;;4.50;4.20;;;;;;;;;;5077225;28;20567;-70
2022/02/16 08:27:00;;;;;;;4.13;3.83;;;;;;;;;;5077975;28;20284;-70
2022/02/16 08:29:27;;;;;;;3.90;3.60;;;;;;;;;;5077467;28;20190;-70
2022/02/16 08:31:55;;;;;;;4.28;3.97;;;;;;;;;;5077048;28;20190;-69
2022/02/16 08:34:22;;;;;;;2.85;2.65;;;;;;;;;;5077957;28;20202;-69
2022/02/16 08:36:55;;;;;;;3.88;3.50;;;;;;;;;;5077354;28;20239;-69
2022/02/16 08:39:25;;;;;;;4.07;3.70;;;;;;;;;;5077424;28;20182;-70
2022/02/16 08:41:53;;;;;;;3.35;3.15;;;;;;;;;;5077847;28;20709;-69
2022/02/16 08:44:20;;;;;;;3.33;3.13;;;;;;;;;;5077656;28;20251;-70
2022/02/16 08:46:47;;;;;;;4.47;4.00;;;;;;;;;;5077372;28;20269;-70
2022/02/16 08:49:15;;;;;;;3.30;3.00;;;;;;;;;;5077035;28;20194;-70
2022/02/16 08:51:42;;;;;;;4.30;3.67;;;;;;;;;;5077023;28;20190;-70
2022/02/16 08:54:09;;;;;;;8.25;3.60;;;;;;;;;;5077433;28;20220;-70
2022/02/16 08:56:38;;;;;;;4.47;4.07;;;;;;;;;;5076901;28;20200;-70
2022/02/16 08:59:07;;;;;;;3.30;3.10;;;;;;;;;;5077637;28;20271;-70
2022/02/16 09:01:35;;;;;;;3.78;3.47;;;;;;;;;;5076168;28;20226;-71
2022/02/16 09:04:02;;;;;;;3.90;3.30;;;;;;;;;;5076765;28;20200;-72
2022/02/16 09:06:30;;;;;;;5.50;4.00;;;;;;;;;;5076728;28;20232;-70
2022/02/16 09:08:57;;;;;;;8.63;4.05;;;;;;;;;;5076648;28;20601;-70
2022/02/16 09:11:26;;;;;;;4.55;3.97;;;;;;;;;;5076388;28;20294;-72
2022/02/16 09:13:55;;;;;;;3.28;3.08;;;;;;;;;;5076975;28;20658;-70
2022/02/16 09:16:22;;;;;;;4.10;3.80;;;;;;;;;;5076969;28;20228;-70
2022/02/16 09:18:50;;;;;;;4.55;4.25;;;;;;;;;;5077009;28;20236;-70
2022/02/16 09:21:18;;;;;;;4.05;3.85;;;;;;;;;;5076854;28;20222;-71
2022/02/16 09:23:45;;;;;;;3.60;3.40;;;;;;;;;;5075897;28;20325;-69
2022/02/16 09:26:12;;;;;;;3.75;3.55;;;;;;;;;;5076324;28;20194;-69
2022/02/16 09:28:40;;;;;;;3.90;3.60;;;;;;;;;;5077156;28;20287;-71
2022/02/16 09:31:08;;;;;;;3.83;3.63;;;;;;;;;;5075999;28;20309;-70
2022/02/16 09:33:36;;;;;;;4.38;3.70;;;;;;;;;;5076183;28;20200;-70
2022/02/16 09:36:03;;;;;;;3.80;3.50;;;;;;;;;;5076337;28;20618;-70
2022/02/16 09:38:30;;;;;;;4.38;4.07;;;;;;;;;;5076227;28;20763;-70
2022/02/16 09:40:58;;;;;;;3.63;3.33;;;;;;;;;;5076167;28;20225;-70
2022/02/16 09:43:25;;;;;;;4.97;4.55;;;;;;;;;;5075788;28;20274;-70
2022/02/16 09:45:55;;;;;;;4.70;4.40;;;;;;;;;;5076529;28;20231;-70
2022/02/16 09:48:24;;;;;;;5.05;4.65;;;;;;;;;;5076497;28;20196;-70
2022/02/16 09:50:52;;;;;;;5.63;5.18;;;;;;;;;;5076102;28;20228;-70
2022/02/16 09:53:19;;;;;;;5.88;5.38;;;;;;;;;;5075924;28;20226;-70
2022/02/16 09:55:46;;;;;;;5.63;5.22;;;;;;;;;;5075937;28;20251;-70
2022/02/16 09:58:13;;;;;;;4.85;4.55;;;;;;;;;;5075679;28;20647;-70
2022/02/16 10:01:00;;;;;;;6.10;5.70;;;;;;;;;;5076069;28;20375;-69
2022/02/16 10:03:29;;;;;;;6.13;5.68;;;;;;;;;;5075626;28;20200;-69
2022/02/16 10:05:56;;;;;;;6.47;5.97;;;;;;;;;;5076224;28;20191;-70
2022/02/16 10:08:38;;;;;;;5.20;4.75;;;;;;;;;;5075949;28;20198;-69
2022/02/16 10:11:05;;;;;;;6.05;5.50;;;;;;;;;;5075401;28;20218;-70
2022/02/16 10:13:34;;;;;;;5.15;4.75;;;;;;;;;;5075607;28;20686;-70
2022/02/16 10:16:02;;;;;;;5.13;4.80;;;;;;;;;;5076151;28;20237;-70
2022/02/16 10:18:31;;;;;;;5.22;4.93;;;;;;;;;;5075139;28;20287;-70
2022/02/16 10:21:07;;;;;;;4.70;4.40;;;;;;;;;;5075430;28;20247;-71
2022/02/16 10:23:41;;;;;;;5.38;5.07;;;;;;;;;;5075205;28;20260;-71
2022/02/16 10:26:08;;;;;;;5.40;5.00;;;;;;;;;;5075066;28;20186;-70
2022/02/16 10:28:41;;;;;;;5.65;5.25;;;;;;;;;;5074988;28;20228;-70
2022/02/16 10:31:09;;;;;;;6.38;5.78;;;;;;;;;;5075327;28;20190;-70
2022/02/16 10:33:38;;;;;;;4.55;4.18;;;;;;;;;;5075167;28;20281;-70
2022/02/16 10:36:06;;;;;;;5.80;5.30;;;;;;;;;;5074790;28;20198;-70
2022/02/16 10:38:34;;;;;;;4.75;4.45;;;;;;;;;;5075021;28;20245;-70
2022/02/16 10:41:06;;;;;;;5.35;4.80;;;;;;;;;;5074539;28;20264;-70
2022/02/16 10:43:35;;;;;;;6.25;4.90;;;;;;;;;;5074750;28;20217;-70
2022/02/16 10:46:02;;;;;;;5.72;5.32;;;;;;;;;;5074678;28;20201;-70
2022/02/16 10:48:29;;;;;;;5.78;5.38;;;;;;;;;;5074738;28;20194;-70
2022/02/16 10:50:58;;;;;;;4.70;4.00;;;;;;;;;;5074940;28;20256;-69
2022/02/16 10:53:27;;;;;;;5.23;4.83;;;;;;;;;;5074707;28;20197;-69
2022/02/16 10:55:54;;;;;;;4.32;3.80;;;;;;;;;;5074691;28;20433;-70
2022/02/16 10:58:22;;;;;;;5.00;4.70;;;;;;;;;;5074739;28;20202;-70
2022/02/16 11:00:51;;;;;;;3.80;3.55;;;;;;;;;;5075364;28;20552;-70
2022/02/16 11:03:22;;;;;;;4.82;4.53;;;;;;;;;;5075082;28;20195;-69
2022/02/16 11:05:50;;;;;;;4.05;3.70;;;;;;;;;;5075727;28;20189;-70
2022/02/16 11:08:20;;;;;;;3.97;3.67;;;;;;;;;;5074790;28;20560;-70
2022/02/16 11:10:48;;;;;;;3.55;3.30;;;;;;;;;;5074407;28;20530;-70
2022/02/16 11:13:18;;;;;;;4.00;3.70;;;;;;;;;;5074977;28;20202;-70
2022/02/16 11:15:46;;;;;;;4.90;3.80;;;;;;;;;;5075138;28;20192;-70
2022/02/16 11:18:15;;;;;;;3.60;3.30;;;;;;;;;;5074060;28;20527;-69
2022/02/16 11:20:42;;;;;;;4.40;4.10;;;;;;;;;;5074140;28;20554;-70
2022/02/16 11:23:10;;;;;;;4.05;3.75;;;;;;;;;;5073788;28;20443;-69
2022/02/16 11:25:41;;;;;;;4.17;3.97;;;;;;;;;;5074338;28;20182;-70
2022/02/16 11:28:12;;;;;;;3.47;3.27;;;;;;;;;;5074947;28;20469;-69
2022/02/16 11:30:41;;;;;;;4.00;3.70;;;;;;;;;;5073866;28;20464;-69
2022/02/16 11:33:19;;;;;;;3.93;3.40;;;;;;;;;;5073645;28;20490;-69
2022/02/16 11:35:54;;;;;;;4.25;3.90;;;;;;;;;;5073750;28;20505;-70
2022/02/16 11:38:23;;;;;;;4.03;3.73;;;;;;;;;;5073679;28;20197;-71
2022/02/16 11:40:53;;;;;;;5.87;4.37;;;;;;;;;;5073935;28;20487;-71
2022/02/16 11:43:22;;;;;;;4.00;3.70;;;;;;;;;;5073600;28;20479;-70
2022/02/16 11:45:57;;;;;;;3.70;3.50;;;;;;;;;;5073583;28;20447;-70
2022/02/16 11:48:38;;;;;;;3.53;3.33;;;;;;;;;;5074548;28;20196;-70
2022/02/16 11:51:23;;;;;;;5.33;3.80;;;;;;;;;;5074278;28;20609;-70
2022/02/16 11:53:50;;;;;;;4.10;3.17;;;;;;;;;;5073340;28;20474;-71
2022/02/16 11:56:19;;;;;;;3.57;3.37;;;;;;;;;;5073368;28;20440;-70
2022/02/16 11:59:07;;;;;;;4.30;3.90;;;;;;;;;;5073391;28;20449;-69
2022/02/16 12:01:34;;;;;;;3.60;3.30;;;;;;;;;;5073180;28;20309;-70
2022/02/16 12:04:01;;;;;;;4.07;3.50;;;;;;;;;;5073763;28;20480;-70
2022/02/16 12:06:38;;;;;;;4.60;4.20;;;;;;;;;;5073623;28;20953;-70
2022/02/16 12:09:07;;;;;;;5.50;3.83;;;;;;;;;;5073865;28;20443;-70
2022/02/16 12:11:37;;;;;;;4.00;3.70;;;;;;;;;;5074309;28;20763;-70
2022/02/16 12:14:05;;;;;;;5.33;3.50;;;;;;;;;;5074287;28;20448;-70
2022/02/16 12:16:33;;;;;;;4.07;3.40;;;;;;;;;;5073421;28;21003;-70
2022/02/16 12:19:02;;;;;;;4.53;3.57;;;;;;;;;;5073610;28;20476;-71
2022/02/16 12:21:31;;;;;;;3.87;3.57;;;;;;;;;;5073524;28;20482;-70
2022/02/16 12:23:59;;;;;;;3.77;3.47;;;;;;;;;;5073224;28;21036;-72
2022/02/16 12:26:27;;;;;;;4.10;3.80;;;;;;;;;;5072963;28;20445;-70
2022/02/16 12:28:58;;;;;;;3.17;2.97;;;;;;;;;;5072984;28;20447;-70
2022/02/16 12:31:27;;;;;;;3.93;3.63;;;;;;;;;;5073461;28;20443;-71
2022/02/16 12:34:04;;;;;;;3.17;2.87;;;;;;;;;;5073683;28;20441;-70
2022/02/16 12:36:32;;;;;;;3.00;2.80;;;;;;;;;;5074117;28;20786;-70
2022/02/16 12:39:10;;;;;;;3.90;3.50;;;;;;;;;;5073937;28;20475;-70
2022/02/16 12:41:46;;;;;;;3.03;2.80;;;;;;;;;;5073889;28;20559;-70
2022/02/16 12:44:16;;;;;;;3.90;3.60;;;;;;;;;;5073370;28;20421;-70
2022/02/16 12:46:45;;;;;;;2.77;2.60;;;;;;;;;;5073233;28;20483;-70
2022/02/16 12:49:25;;;;;;;5.53;3.20;;;;;;;;;;5072905;28;20956;-70
2022/02/16 12:51:54;;;;;;;3.20;3.00;;;;;;;;;;5073575;28;20497;-70
2022/02/16 12:54:27;;;;;;;5.40;3.30;;;;;;;;;;5073594;28;20539;-81
2022/02/16 12:57:01;;;;;;;3.43;3.13;;;;;;;;;;5073190;28;20433;-72
2022/02/16 12:59:31;;;;;;;3.50;3.20;;;;;;;;;;5073314;28;20422;-72
2022/02/16 13:02:01;;;;;;;3.63;3.13;;;;;;;;;;5073115;28;20503;-71
2022/02/16 13:04:30;;;;;;;4.00;3.70;;;;;;;;;;5074439;28;20913;-71
2022/02/16 13:06:57;;;;;;;3.50;3.30;;;;;;;;;;5076508;28;20937;-71
2022/02/16 13:09:25;;;;;;;3.50;3.20;;;;;;;;;;5076679;28;20483;-71
2022/02/16 13:11:54;;;;;;;3.33;3.07;;;;;;;;;;5076661;28;20452;-72
2022/02/16 13:14:22;;;;;;;3.47;3.17;;;;;;;;;;5077291;28;20521;-72
2022/02/16 13:16:54;;;;;;;4.43;3.33;;;;;;;;;;5076342;28;20494;-73
2022/02/16 13:19:40;;;;;;;3.50;3.20;;;;;;;;;;5076089;28;20810;-73
2022/02/16 13:22:07;;;;;;;3.78;3.22;;;;;;;;;;5077109;28;20882;-73
2022/02/16 13:24:35;;;;;;;5.07;3.75;;;;;;;;;;5076171;28;20226;-72
2022/02/16 13:27:03;;;;;;;3.47;3.17;;;;;;;;;;5076560;28;20201;-72
2022/02/16 13:29:30;;;;;;;3.70;3.40;;;;;;;;;;5076065;28;20533;-71
2022/02/16 13:31:59;;;;;;;4.90;4.10;;;;;;;;;;5075710;28;20440;-73
2022/02/16 13:34:26;;;;;;;3.73;3.40;;;;;;;;;;5076207;28;20484;-71
2022/02/16 13:36:54;;;;;;;6.53;3.60;;;;;;;;;;5075675;28;20523;-71
2022/02/16 13:39:22;;;;;;;4.37;3.70;;;;;;;;;;5076099;28;20440;-72
2022/02/16 13:41:53;;;;;;;4.73;3.50;;;;;;;;;;5075595;28;20545;-71
2022/02/16 13:44:25;;;;;;;7.32;4.63;;;;;;;;;;5076149;28;20535;-70
2022/02/16 13:46:53;;;;;;;6.77;4.70;;;;;;;;;;5075848;28;20754;-71
2022/02/16 13:49:24;;;;;;;4.33;3.93;;;;;;;;;;5076003;28;20440;-71
2022/02/16 13:51:53;;;;;;;4.03;3.63;;;;;;;;;;5076377;28;20774;-73
2022/02/16 13:54:21;;;;;;;5.13;4.63;;;;;;;;;;5075811;28;20819;-71
2022/02/16 13:56:52;;;;;;;4.47;3.87;;;;;;;;;;5075531;28;20938;-73
2022/02/16 13:59:20;;;;;;;4.30;4.00;;;;;;;;;;5075290;28;21014;-73
2022/02/16 14:02:02;;;;;;;4.10;3.70;;;;;;;;;;5075348;28;20476;-72
2022/02/16 14:04:33;;;;;;;4.57;4.17;;;;;;;;;;5076390;28;20539;-72
2022/02/16 14:07:00;;;;;;;5.57;4.85;;;;;;;;;;5076356;28;20455;-74
2022/02/16 14:09:28;;;;;;;4.38;3.97;;;;;;;;;;5075898;28;20222;-73
2022/02/16 14:11:55;;;;;;;5.90;4.80;;;;;;;;;;5075236;28;20289;-73
2022/02/16 14:14:22;;;;;;;5.63;5.10;;;;;;;;;;5075483;28;20536;-74
2022/02/16 14:16:49;;;;;;;5.80;5.10;;;;;;;;;;5073720;28;20472;-72
2022/02/16 14:19:26;;;;;;;4.90;4.40;;;;;;;;;;5075070;28;20781;-73
2022/02/16 14:21:59;;;;;;;6.40;4.07;;;;;;;;;;5074991;28;20541;-73
2022/02/16 14:24:30;;;;;;;7.27;5.07;;;;;;;;;;5074770;28;21043;-72
2022/02/16 14:26:57;;;;;;;4.83;3.90;;;;;;;;;;5075011;28;20428;-72
2022/02/16 14:29:25;;;;;;;5.70;4.17;;;;;;;;;;5075300;28;20472;-72
2022/02/16 14:31:52;;;;;;;5.70;4.30;;;;;;;;;;5075216;28;20523;-71
2022/02/16 14:34:22;;;;;;;8.60;3.80;;;;;;;;;;5074919;28;20436;-71
2022/02/16 14:36:49;;;;;;;6.10;4.23;;;;;;;;;;5074549;28;20942;-71
2022/02/16 14:39:18;;;;;;;9.13;4.70;;;;;;;;;;5074543;28;20524;-69
2022/02/16 14:41:45;;;;;;;8.90;4.93;;;;;;;;;;5074591;28;20519;-69
2022/02/16 14:44:13;;;;;;;5.43;4.53;;;;;;;;;;5075226;28;20492;-70
2022/02/16 14:46:40;;;;;;;5.20;4.70;;;;;;;;;;5074982;28;20839;-71
2022/02/16 14:49:08;;;;;;;5.90;5.33;;;;;;;;;;5074540;28;20486;-69
2022/02/16 14:51:36;;;;;;;6.27;5.33;;;;;;;;;;5074713;28;20440;-70